Time;durP1;ratioP1;P1;durP2;ratioP2;P2;SDS_P1;SDS_P2;PMS_P1;PMS_P2;Temp;Humidity;BMP_temperature;BMP_pressure;BME280_temperature;BME280_humidity;BME280_pressure;Samples;Min_cycle;Max_cycle;Signal;HPM_P1;HPM_P2
2022/06/25 00:00:27;;;;;;;4.75;2.05;;;;;;;14.58;100.00;96152.13;5032735;28;20044;-72
2022/06/25 00:02:52;;;;;;;8.38;2.00;;;;;;;14.60;100.00;96160.72;5035297;28;20512;-72
2022/06/25 00:05:27;;;;;;;4.25;1.80;;;;;;;14.57;100.00;96157.81;5033267;28;20044;-71
2022/06/25 00:07:54;;;;;;;5.85;2.10;;;;;;;14.58;100.00;96162.91;5034431;28;20121;-71
2022/06/25 00:10:19;;;;;;;5.38;1.90;;;;;;;14.60;100.00;96171.50;5031709;28;20037;-71
2022/06/25 00:12:45;;;;;;;3.88;1.90;;;;;;;14.52;100.00;96164.00;5033943;28;20049;-72
2022/06/25 00:15:10;;;;;;;8.85;2.05;;;;;;;14.51;100.00;96167.78;5033821;28;20110;-72
2022/06/25 00:17:36;;;;;;;5.80;1.60;;;;;;;14.49;100.00;96164.59;5036130;28;20102;-71
2022/06/25 00:20:03;;;;;;;3.72;2.00;;;;;;;14.44;100.00;96169.97;5032384;28;20052;-71
2022/06/25 00:22:29;;;;;;;5.82;1.90;;;;;;;14.41;100.00;96179.41;5034745;28;20037;-71
2022/06/25 00:24:54;;;;;;;5.80;1.77;;;;;;;14.35;100.00;96179.72;5035414;28;20037;-71
2022/06/25 00:27:20;;;;;;;6.65;1.85;;;;;;;14.31;100.00;96179.47;5031757;28;20116;-71
2022/06/25 00:29:46;;;;;;;7.75;1.80;;;;;;;14.30;100.00;96183.22;5032302;28;20033;-72
2022/06/25 00:32:11;;;;;;;4.18;1.90;;;;;;;14.32;100.00;96181.09;5034315;28;20045;-72
2022/06/25 00:34:38;;;;;;;6.18;1.70;;;;;;;14.31;100.00;96190.22;5035726;28;20037;-72
2022/06/25 00:37:05;;;;;;;5.10;2.05;;;;;;;14.29;100.00;96194.28;5048784;28;20052;-71
2022/06/25 00:39:30;;;;;;;8.13;2.08;;;;;;;14.25;100.00;96187.88;5033354;28;20073;-72
2022/06/25 00:41:56;;;;;;;6.25;2.25;;;;;;;14.23;100.00;96185.41;5033468;28;20113;-72
2022/06/25 00:44:21;;;;;;;4.93;2.10;;;;;;;14.23;100.00;96190.81;5047575;28;20602;-73
2022/06/25 00:46:47;;;;;;;6.00;1.80;;;;;;;14.23;100.00;96188.91;5033357;28;20052;-72
2022/06/25 00:49:13;;;;;;;7.57;1.98;;;;;;;14.27;100.00;96188.38;5036460;28;20637;-73
2022/06/25 00:51:40;;;;;;;4.00;1.75;;;;;;;14.29;100.00;96199.66;5036412;28;20230;-72
2022/06/25 00:54:09;;;;;;;4.57;2.03;;;;;;;14.20;100.00;96199.44;5032888;28;20040;-73
2022/06/25 00:56:38;;;;;;;4.63;1.83;;;;;;;14.11;100.00;96207.28;5032757;28;20569;-72
2022/06/25 00:59:05;;;;;;;7.22;2.35;;;;;;;14.11;100.00;96212.69;5034022;28;20052;-73
2022/06/25 01:01:34;;;;;;;6.43;2.30;;;;;;;14.12;100.00;96197.34;5016399;28;20044;-72
2022/06/25 01:04:00;;;;;;;5.95;2.50;;;;;;;14.16;100.00;96214.53;5035676;28;20389;-72
2022/06/25 01:06:28;;;;;;;7.63;2.55;;;;;;;14.15;100.00;96223.69;5033635;28;20043;-73
2022/06/25 01:08:56;;;;;;;6.53;3.10;;;;;;;14.14;100.00;96220.19;5048871;28;20373;-72
2022/06/25 01:11:22;;;;;;;5.85;2.67;;;;;;;14.17;100.00;96227.72;5034335;28;20052;-73
2022/06/25 01:13:47;;;;;;;8.52;2.90;;;;;;;14.18;100.00;96233.91;5033736;28;20044;-73
2022/06/25 01:16:13;;;;;;;5.07;2.78;;;;;;;14.15;100.00;96229.88;5033549;28;20118;-72
2022/06/25 01:18:38;;;;;;;6.00;2.88;;;;;;;14.19;100.00;96239.00;5047033;28;20143;-73
2022/06/25 01:21:04;;;;;;;6.15;2.65;;;;;;;14.19;100.00;96240.91;5047257;28;20045;-73
2022/06/25 01:23:33;;;;;;;4.13;2.70;;;;;;;14.25;100.00;96242.50;5030502;28;20048;-72
2022/06/25 01:26:00;;;;;;;7.70;3.08;;;;;;;14.25;100.00;96247.88;5018569;28;20182;-73
2022/06/25 01:28:25;;;;;;;8.35;2.63;;;;;;;14.23;100.00;96244.63;5032038;28;20048;-72
2022/06/25 01:30:51;;;;;;;4.40;3.10;;;;;;;14.27;100.00;96243.00;5030594;28;20542;-72
2022/06/25 01:33:16;;;;;;;4.60;2.80;;;;;;;14.26;100.00;96245.97;5035964;28;20220;-73
2022/06/25 01:35:41;;;;;;;6.55;3.05;;;;;;;14.23;100.00;96252.69;5030637;28;20048;-72
2022/06/25 01:38:07;;;;;;;7.55;3.30;;;;;;;14.27;100.00;96250.28;5033559;28;20045;-73
2022/06/25 01:40:33;;;;;;;7.07;3.47;;;;;;;14.19;100.00;96247.06;5030380;28;20045;-72
2022/06/25 01:42:59;;;;;;;6.55;3.40;;;;;;;14.21;100.00;96254.88;5033876;28;20399;-73
2022/06/25 01:45:30;;;;;;;5.93;3.03;;;;;;;14.13;100.00;96252.75;5045963;28;20034;-73
2022/06/25 01:47:57;;;;;;;4.28;3.15;;;;;;;14.10;100.00;96247.94;5054134;28;20029;-73
2022/06/25 01:50:23;;;;;;;4.95;3.00;;;;;;;14.02;100.00;96252.00;5036810;28;20079;-73
2022/06/25 01:52:49;;;;;;;5.25;3.10;;;;;;;14.05;100.00;96253.31;5036171;28;20546;-73
2022/06/25 01:55:18;;;;;;;6.75;3.30;;;;;;;14.04;100.00;96246.34;5032596;28;20268;-73
2022/06/25 01:57:46;;;;;;;7.57;2.95;;;;;;;14.02;100.00;96253.88;5038675;28;20036;-73
2022/06/25 02:00:16;;;;;;;9.35;3.00;;;;;;;14.00;100.00;96248.75;5037929;28;20567;-72
2022/06/25 02:02:45;;;;;;;4.93;2.90;;;;;;;13.96;100.00;96258.47;5032023;28;20051;-73
2022/06/25 02:05:13;;;;;;;10.73;3.47;;;;;;;13.95;100.00;96262.25;5038259;28;20217;-73
2022/06/25 02:07:39;;;;;;;7.50;3.45;;;;;;;13.91;100.00;96258.47;5037384;28;20063;-72
2022/06/25 02:10:06;;;;;;;9.95;3.42;;;;;;;13.92;100.00;96268.97;5033087;28;20041;-72
2022/06/25 02:12:32;;;;;;;5.90;3.13;;;;;;;13.86;100.00;96266.59;5041576;28;20047;-72
2022/06/25 02:14:58;;;;;;;10.60;3.28;;;;;;;13.82;100.00;96262.81;5038837;28;20044;-73
2022/06/25 02:17:24;;;;;;;9.02;3.83;;;;;;;13.84;100.00;96260.66;5034547;28;20057;-72
2022/06/25 02:19:51;;;;;;;7.28;4.60;;;;;;;13.87;100.00;96262.81;5036301;28;20565;-73
2022/06/25 02:22:17;;;;;;;9.30;4.20;;;;;;;13.87;100.00;96257.44;5055510;28;20123;-73
2022/06/25 02:24:43;;;;;;;9.98;3.97;;;;;;;13.86;100.00;96258.53;5050658;28;20124;-73
2022/06/25 02:27:10;;;;;;;10.50;4.05;;;;;;;13.83;100.00;96280.56;5035192;28;20786;-73
2022/06/25 02:29:35;;;;;;;6.18;3.92;;;;;;;13.83;100.00;96280.56;5035702;28;20049;-73
2022/06/25 02:32:02;;;;;;;9.55;4.50;;;;;;;13.80;100.00;96281.91;5034550;28;20103;-72
2022/06/25 02:34:27;;;;;;;10.65;4.50;;;;;;;13.80;100.00;96278.44;5038166;28;20435;-73
2022/06/25 02:36:53;;;;;;;7.80;4.45;;;;;;;13.76;100.00;96282.72;5034800;28;20037;-72
2022/06/25 02:39:21;;;;;;;7.65;4.05;;;;;;;13.74;100.00;96285.69;5032794;28;20034;-72
2022/06/25 02:41:46;;;;;;;7.78;4.65;;;;;;;13.73;100.00;96286.78;5052665;28;20439;-73
2022/06/25 02:44:12;;;;;;;6.03;4.20;;;;;;;13.75;100.00;96284.59;5050772;28;20439;-72
2022/06/25 02:46:48;;;;;;;6.45;3.97;;;;;;;13.76;100.00;96282.72;5034614;28;20461;-72
2022/06/25 02:49:17;;;;;;;10.65;4.70;;;;;;;13.77;100.00;96289.72;5047483;28;20045;-72
2022/06/25 02:51:42;;;;;;;10.23;4.13;;;;;;;13.77;100.00;96290.50;5033790;28;20049;-72
2022/06/25 02:54:08;;;;;;;7.97;4.22;;;;;;;13.81;100.00;96294.28;5038147;28;20164;-73
2022/06/25 02:59:18;;;;;;;6.80;4.10;;;;;;;13.84;100.00;96293.72;5038629;28;20078;-72
2022/06/25 03:01:47;;;;;;;10.70;4.28;;;;;;;13.91;100.00;96294.25;5049056;28;20150;-73
2022/06/25 03:04:14;;;;;;;8.05;4.13;;;;;;;14.00;100.00;96294.50;5046470;28;20032;-74
2022/06/25 03:06:40;;;;;;;5.82;3.78;;;;;;;14.03;100.00;96291.28;5046623;28;20036;-72
2022/06/25 03:09:07;;;;;;;7.22;4.38;;;;;;;14.07;100.00;96289.63;5038989;28;20111;-73
2022/06/25 03:11:33;;;;;;;7.15;4.05;;;;;;;14.05;100.00;96289.09;5036012;28;20038;-73
2022/06/25 03:13:59;;;;;;;9.70;4.13;;;;;;;13.99;100.00;96300.94;5034009;28;20134;-73
2022/06/25 03:16:25;;;;;;;7.43;4.55;;;;;;;13.95;100.00;96294.53;5049696;28;20702;-73
2022/06/25 03:18:55;;;;;;;7.25;4.60;;;;;;;13.92;100.00;96295.06;5029605;28;20041;-72
2022/06/25 03:21:36;;;;;;;8.35;4.55;;;;;;;13.85;100.00;96295.38;5035550;28;20037;-73
2022/06/25 03:24:05;;;;;;;9.38;4.82;;;;;;;13.85;100.00;96298.06;5049828;28;20051;-72
2022/06/25 03:26:32;;;;;;;10.18;5.03;;;;;;;13.84;100.00;96299.09;5052541;28;20036;-73
2022/06/25 03:28:59;;;;;;;10.18;5.05;;;;;;;13.91;100.00;96304.19;5033512;28;20076;-73
2022/06/25 03:31:26;;;;;;;9.48;5.40;;;;;;;14.01;100.00;96287.22;5050639;28;20041;-73
2022/06/25 03:33:53;;;;;;;12.63;6.13;;;;;;;14.16;100.00;96300.63;5032289;28;20530;-73
2022/06/25 03:36:45;;;;;;;11.57;5.40;;;;;;;14.23;100.00;96296.56;5031270;28;20466;-72
2022/06/25 03:39:10;;;;;;;13.05;5.43;;;;;;;14.20;100.00;96301.69;5049858;28;20041;-73
2022/06/25 03:41:38;;;;;;;11.90;5.60;;;;;;;14.19;100.00;96300.09;5036659;28;20499;-73
2022/06/25 03:44:24;;;;;;;9.57;4.63;;;;;;;14.18;100.00;96299.28;5047682;28;20071;-73
2022/06/25 03:46:58;;;;;;;8.15;5.25;;;;;;;14.22;100.00;96297.66;5038062;28;20147;-73
2022/06/25 03:49:30;;;;;;;9.23;5.70;;;;;;;14.31;100.00;96302.44;5036320;28;20110;-74
2022/06/25 03:51:58;;;;;;;12.15;4.90;;;;;;;14.21;100.00;96304.13;5048427;28;20120;-73
2022/06/25 03:54:23;;;;;;;11.02;5.13;;;;;;;14.46;100.00;96292.47;5059755;28;20064;-73
2022/06/25 03:56:50;;;;;;;9.43;5.00;;;;;;;14.54;100.00;96290.25;5036634;28;20052;-73
2022/06/25 03:59:17;;;;;;;8.77;4.95;;;;;;;14.48;100.00;96300.28;5035596;28;20065;-73
2022/06/25 04:01:43;;;;;;;9.52;4.80;;;;;;;14.42;100.00;96299.47;5036106;28;20357;-73
2022/06/25 04:04:10;;;;;;;9.82;5.20;;;;;;;14.40;100.00;96298.94;5020912;28;20600;-72
2022/06/25 04:06:36;;;;;;;11.00;5.07;;;;;;;14.37;100.00;96302.16;5034221;28;20055;-73
2022/06/25 04:09:04;;;;;;;6.22;4.88;;;;;;;14.41;100.00;96305.13;5035130;28;20048;-73
2022/06/25 04:11:32;;;;;;;8.32;4.68;;;;;;;14.30;100.00;96304.34;5035652;28;20397;-73
2022/06/25 04:13:59;;;;;;;7.05;4.95;;;;;;;14.54;100.00;96306.41;5034216;28;20075;-73
2022/06/25 04:16:25;;;;;;;10.02;5.20;;;;;;;14.66;100.00;96305.03;5003523;28;20472;-73
2022/06/25 04:18:52;;;;;;;10.15;4.95;;;;;;;14.72;100.00;96300.41;5052491;28;20048;-72
2022/06/25 04:21:22;;;;;;;8.30;5.30;;;;;;;14.74;100.00;96296.34;5033296;28;20102;-72
2022/06/25 04:23:47;;;;;;;10.85;6.15;;;;;;;14.75;100.00;96307.94;5033677;28;20138;-72
2022/06/25 04:26:14;;;;;;;9.85;5.35;;;;;;;14.87;100.00;96304.91;5033685;28;20029;-73
2022/06/25 04:31:33;;;;;;;12.30;5.28;;;;;;;14.83;100.00;96301.16;5035293;28;20056;-73
2022/06/25 04:33:59;;;;;;;10.07;5.63;;;;;;;14.76;100.00;96296.06;5039099;28;20064;-73
2022/06/25 04:36:26;;;;;;;16.23;6.32;;;;;;;14.71;100.00;96307.69;5036442;28;20064;-73
2022/06/25 04:38:53;;;;;;;10.48;5.70;;;;;;;14.74;100.00;96295.56;5033187;28;20064;-73
2022/06/25 04:41:20;;;;;;;9.48;5.75;;;;;;;14.73;100.00;96299.34;5030389;28;20175;-73
2022/06/25 04:43:50;;;;;;;11.43;5.50;;;;;;;14.82;100.00;96303.03;5036544;28;20060;-73
2022/06/25 04:46:21;;;;;;;11.48;5.65;;;;;;;14.90;100.00;96304.34;5030872;28;20060;-73
2022/06/25 04:48:47;;;;;;;8.45;5.60;;;;;;;14.96;100.00;96311.31;5048403;28;20033;-73
2022/06/25 04:51:35;;;;;;;14.05;5.50;;;;;;;14.97;100.00;96313.72;5033533;28;20805;-73
2022/06/25 04:54:03;;;;;;;9.93;4.85;;;;;;;14.91;100.00;96316.72;5033856;28;20508;-73
2022/06/25 04:56:41;;;;;;;8.90;5.20;;;;;;;14.88;100.00;96320.00;5039015;28;20071;-73
2022/06/25 04:59:06;;;;;;;10.93;5.28;;;;;;;14.67;100.00;96328.16;5032875;28;20068;-72
2022/06/25 05:01:51;;;;;;;11.70;5.97;;;;;;;14.73;100.00;96332.44;5035171;28;20045;-72
2022/06/25 05:04:21;;;;;;;10.43;5.30;;;;;;;14.89;100.00;96325.09;5035993;28;20239;-72
2022/06/25 05:06:47;;;;;;;8.35;5.25;;;;;;;15.12;100.00;96325.50;5030958;28;20064;-72
2022/06/25 05:09:13;;;;;;;10.35;6.05;;;;;;;15.09;100.00;96328.72;5029946;28;20480;-73
2022/06/25 05:11:39;;;;;;;8.63;5.40;;;;;;;15.13;100.00;96327.91;5021453;28;20036;-73
2022/06/25 05:14:06;;;;;;;10.65;5.13;;;;;;;14.84;100.00;96335.88;5048986;28;20446;-73
2022/06/25 05:16:32;;;;;;;8.45;5.32;;;;;;;14.74;100.00;96333.25;5048197;28;20052;-73
2022/06/25 05:18:57;;;;;;;13.15;5.10;;;;;;;14.73;100.00;96339.72;5050402;28;20130;-74
2022/06/25 05:21:24;;;;;;;9.80;5.78;;;;;;;14.75;100.00;96342.94;5034338;28;20395;-72
2022/06/25 05:23:49;;;;;;;11.63;4.97;;;;;;;14.94;100.00;96343.94;5037510;28;20036;-72
2022/06/25 05:26:15;;;;;;;10.10;5.05;;;;;;;15.18;100.00;96349.44;5036829;28;20585;-73
2022/06/25 05:28:41;;;;;;;8.32;4.85;;;;;;;15.28;100.00;96343.16;5021208;28;20137;-72
2022/06/25 05:31:07;;;;;;;9.73;4.72;;;;;;;15.49;100.00;96350.00;5038101;28;20046;-73
2022/06/25 05:33:33;;;;;;;10.27;5.22;;;;;;;15.70;100.00;96339.06;5057606;28;20522;-74
2022/06/25 05:35:59;;;;;;;11.18;5.68;;;;;;;15.86;100.00;96343.22;5052717;28;20040;-73
2022/06/25 05:38:24;;;;;;;9.48;5.40;;;;;;;15.82;100.00;96340.31;5053195;28;20609;-73
2022/06/25 05:40:50;;;;;;;9.02;5.38;;;;;;;15.78;100.00;96346.53;5035816;28;20516;-74
2022/06/25 05:43:15;;;;;;;12.20;5.32;;;;;;;16.04;100.00;96352.50;5038821;28;20756;-73
2022/06/25 05:45:41;;;;;;;9.27;4.93;;;;;;;16.05;100.00;96346.81;5039034;28;20456;-72
2022/06/25 05:48:06;;;;;;;11.18;5.10;;;;;;;16.23;100.00;96347.19;5037794;28;20455;-73
2022/06/25 05:50:32;;;;;;;9.70;5.60;;;;;;;16.44;100.00;96351.25;5039344;28;20098;-74
2022/06/25 05:52:58;;;;;;;8.68;5.07;;;;;;;16.59;100.00;96348.38;5039735;28;20047;-73
2022/06/25 05:55:24;;;;;;;7.50;5.25;;;;;;;16.73;100.00;96355.78;5036748;28;20531;-73
2022/06/25 05:57:51;;;;;;;8.95;5.18;;;;;;;16.56;100.00;96346.22;5039368;28;20228;-73
2022/06/25 06:00:17;;;;;;;12.02;5.60;;;;;;;16.47;100.00;96350.66;5039309;28;20510;-74
2022/06/25 06:02:42;;;;;;;11.75;5.55;;;;;;;16.51;100.00;96351.72;5039696;28;20037;-73
2022/06/25 06:05:08;;;;;;;12.45;5.13;;;;;;;16.57;100.00;96357.84;5037565;28;20040;-73
2022/06/25 06:07:34;;;;;;;11.07;4.95;;;;;;;16.79;100.00;96358.13;5036838;28;20037;-74
2022/06/25 06:09:59;;;;;;;10.93;4.78;;;;;;;16.55;100.00;96350.03;5037319;28;20052;-73
2022/06/25 06:12:25;;;;;;;15.43;5.07;;;;;;;16.52;100.00;96364.13;5040520;28;20044;-73
2022/06/25 06:14:50;;;;;;;7.95;5.20;;;;;;;16.95;100.00;96359.53;5038279;28;20041;-74
2022/06/25 06:17:16;;;;;;;8.25;4.85;;;;;;;17.18;100.00;96357.06;5038497;28;20052;-73
2022/06/25 06:19:41;;;;;;;12.10;4.60;;;;;;;17.20;100.00;96349.47;5038652;28;20096;-73
2022/06/25 06:22:07;;;;;;;11.38;3.97;;;;;;;17.05;100.00;96350.50;5058407;28;20068;-73
2022/06/25 06:24:32;;;;;;;7.68;4.18;;;;;;;17.04;100.00;96350.78;5037556;28;20041;-73
2022/06/25 06:26:58;;;;;;;12.43;4.55;;;;;;;16.69;100.00;96355.56;5037668;28;20037;-73
2022/06/25 06:29:24;;;;;;;7.70;4.07;;;;;;;16.75;100.00;96354.41;5038041;28;20050;-73
2022/06/25 06:31:49;;;;;;;8.55;4.00;;;;;;;16.72;100.00;96354.97;5037092;28;20079;-73
2022/06/25 06:34:15;;;;;;;11.40;4.40;;;;;;;16.83;100.00;96361.88;5036500;28;20049;-74
2022/06/25 06:36:41;;;;;;;10.90;4.40;;;;;;;17.09;100.00;96361.53;5057455;28;20029;-73
2022/06/25 06:39:06;;;;;;;11.98;4.55;;;;;;;17.31;100.00;96367.16;5033749;28;20037;-73
2022/06/25 06:41:32;;;;;;;10.73;4.20;;;;;;;17.22;100.00;96366.22;5040016;28;20081;-73
2022/06/25 06:43:57;;;;;;;15.52;4.65;;;;;;;17.46;100.00;96368.81;5034686;28;20379;-74
2022/06/25 06:46:23;;;;;;;11.80;4.47;;;;;;;17.46;100.00;96371.53;5035031;28;21171;-73
2022/06/25 06:48:48;;;;;;;8.73;4.68;;;;;;;17.37;100.00;96376.81;5037272;28;20040;-72
2022/06/25 06:51:14;;;;;;;7.68;5.55;;;;;;;17.17;100.00;96385.19;5038528;28;20155;-73
2022/06/25 06:53:39;;;;;;;13.85;5.28;;;;;;;17.29;100.00;96390.97;5039489;28;20040;-73
2022/06/25 06:56:04;;;;;;;6.63;4.30;;;;;;;17.17;100.00;96385.19;5038440;28;20223;-74
2022/06/25 06:58:30;;;;;;;7.75;4.50;;;;;;;17.15;100.00;96384.69;5038267;28;20139;-73
2022/06/25 07:00:57;;;;;;;10.05;4.68;;;;;;;17.18;100.00;96384.09;5037275;28;20416;-74
2022/06/25 07:03:22;;;;;;;9.73;4.70;;;;;;;17.48;100.00;96380.94;5037565;28;20049;-72
2022/06/25 07:05:48;;;;;;;7.28;5.00;;;;;;;17.60;100.00;96380.50;5037897;28;20450;-72
2022/06/25 07:08:19;;;;;;;10.45;5.07;;;;;;;17.57;100.00;96372.97;5034475;28;20519;-72
2022/06/25 07:10:45;;;;;;;8.75;4.63;;;;;;;17.38;100.00;96362.19;5035908;28;20056;-72
2022/06/25 07:13:10;;;;;;;7.85;5.00;;;;;;;17.41;100.00;96355.38;5040004;28;20029;-73
2022/06/25 07:15:36;;;;;;;10.50;5.05;;;;;;;17.53;100.00;96361.13;5036565;28;20103;-73
2022/06/25 07:18:02;;;;;;;12.07;4.72;;;;;;;17.62;100.00;96361.28;5037582;28;20064;-72
2022/06/25 07:20:27;;;;;;;9.95;5.03;;;;;;;17.62;100.00;96363.97;5035555;28;20372;-72
2022/06/25 07:22:53;;;;;;;10.73;5.05;;;;;;;17.88;100.00;96370.59;5039754;28;20153;-71
2022/06/25 07:25:18;;;;;;;12.50;5.50;;;;;;;18.18;100.00;96376.56;5035261;28;20049;-72
2022/06/25 07:27:44;;;;;;;7.15;4.57;;;;;;;18.34;100.00;96373.28;5036827;28;20033;-72
2022/06/25 07:30:11;;;;;;;7.90;4.85;;;;;;;18.26;100.00;96367.75;5050993;28;20057;-73
2022/06/25 07:32:36;;;;;;;10.23;5.20;;;;;;;18.22;100.00;96366.75;5033719;28;20044;-72
2022/06/25 07:35:02;;;;;;;10.40;4.85;;;;;;;18.23;100.00;96373.78;5037154;28;20926;-73
2022/06/25 07:37:28;;;;;;;8.45;5.30;;;;;;;18.47;100.00;96377.09;5038409;28;20055;-72
2022/06/25 07:39:54;;;;;;;11.23;5.45;;;;;;;18.60;100.00;96373.59;5035828;28;20033;-72
2022/06/25 07:42:19;;;;;;;10.85;5.47;;;;;;;18.33;100.00;96376.28;5036582;28;20044;-72
2022/06/25 07:44:45;;;;;;;16.58;5.50;;;;;;;18.21;100.00;96373.25;5033337;28;20041;-72
2022/06/25 07:47:10;;;;;;;10.88;5.25;;;;;;;18.38;100.00;96374.28;5037134;28;20041;-71
2022/06/25 07:51:56;;;;;;;9.32;5.03;;;;;;;18.07;100.00;96370.53;5034063;28;20442;-73
2022/06/25 07:52:21;;;;;;;8.23;4.95;;;;;;;18.37;100.00;96372.69;5035520;28;20073;-72
2022/06/25 07:54:46;;;;;;;9.50;5.20;;;;;;;19.16;100.00;96367.03;5035837;28;20068;-72
2022/06/25 07:57:12;;;;;;;9.30;5.28;;;;;;;19.45;100.00;96352.25;5036296;28;20041;-72
2022/06/25 07:59:38;;;;;;;9.35;5.68;;;;;;;19.39;100.00;96357.00;5035567;28;20112;-72
2022/06/25 08:02:03;;;;;;;11.07;5.55;;;;;;;19.23;100.00;96360.38;5034207;28;20052;-73
2022/06/25 08:04:29;;;;;;;21.10;5.60;;;;;;;19.09;100.00;96355.78;5036062;28;20033;-72
2022/06/25 08:06:56;;;;;;;10.38;5.00;;;;;;;19.23;100.00;96354.97;5035469;28;20037;-72
2022/06/25 08:09:22;;;;;;;13.70;5.25;;;;;;;19.27;100.00;96356.75;5037644;28;20040;-72
2022/06/25 08:11:48;;;;;;;8.45;5.47;;;;;;;18.94;100.00;96361.53;5034981;28;20033;-73
2022/06/25 08:14:14;;;;;;;13.40;5.35;;;;;;;18.91;100.00;96371.09;5032102;28;20439;-73
2022/06/25 08:16:40;;;;;;;10.48;4.90;;;;;;;18.87;100.00;96363.84;5037109;28;20048;-73
2022/06/25 08:19:06;;;;;;;13.32;5.80;;;;;;;18.69;100.00;96362.09;5033290;28;20040;-72
2022/06/25 08:21:32;;;;;;;9.98;5.07;;;;;;;18.44;100.00;96366.84;5034599;28;20037;-72
2022/06/25 08:23:57;;;;;;;9.63;5.80;;;;;;;18.62;100.00;96373.28;5035495;28;20671;-72
2022/06/25 08:26:23;;;;;;;11.20;5.78;;;;;;;19.21;100.00;96363.38;5001180;28;20576;-72
2022/06/25 08:28:49;;;;;;;10.05;5.43;;;;;;;19.08;100.00;96361.53;5032829;28;20033;-72
2022/06/25 08:31:15;;;;;;;10.38;5.00;;;;;;;19.04;100.00;96374.88;5031922;28;20504;-73
2022/06/25 08:33:41;;;;;;;8.95;5.05;;;;;;;19.01;100.00;96364.66;5035073;28;20123;-72
2022/06/25 08:36:06;;;;;;;12.27;4.70;;;;;;;19.79;100.00;96359.88;5031993;28;20036;-72
2022/06/25 08:38:32;;;;;;;7.55;4.40;;;;;;;19.80;100.00;96363.41;5035292;28;20112;-73
2022/06/25 08:40:59;;;;;;;8.07;4.72;;;;;;;19.44;100.00;96354.16;5033669;28;20413;-73
2022/06/25 08:43:24;;;;;;;14.93;4.97;;;;;;;19.80;100.00;96347.09;5032986;28;20391;-72
2022/06/25 08:45:50;;;;;;;7.22;4.10;;;;;;;19.99;100.00;96351.19;5032268;28;20330;-72
2022/06/25 08:48:21;;;;;;;9.80;4.43;;;;;;;19.81;100.00;96359.56;5031168;28;20037;-73
2022/06/25 08:50:48;;;;;;;10.95;4.95;;;;;;;20.25;100.00;96356.78;5032997;28;20234;-72
2022/06/25 08:53:15;;;;;;;5.93;4.10;;;;;;;20.67;100.00;96353.75;5029658;28;20045;-72
2022/06/25 08:55:41;;;;;;;7.25;4.20;;;;;;;20.51;100.00;96356.91;5029923;28;20495;-72
2022/06/25 08:58:09;;;;;;;8.15;3.75;;;;;;;20.41;100.00;96350.94;5029394;28;20124;-71
2022/06/25 09:00:37;;;;;;;5.97;3.50;;;;;;;20.09;100.00;96350.16;5031616;28;20148;-72
2022/06/25 09:03:03;;;;;;;7.60;3.60;;;;;;;20.70;100.00;96353.13;5033631;28;20077;-72
2022/06/25 09:05:34;;;;;;;6.72;3.10;;;;;;;20.98;100.00;96354.47;5030365;28;20037;-72
2022/06/25 09:08:03;;;;;;;8.23;3.58;;;;;;;20.52;100.00;96355.00;5033537;28;20504;-71
2022/06/25 09:10:29;;;;;;;14.23;4.20;;;;;;;20.75;100.00;96356.50;5032901;28;20075;-73
2022/06/25 09:12:57;;;;;;;9.10;3.75;;;;;;;20.79;100.00;96349.34;5034836;28;20087;-71
2022/06/25 09:15:27;;;;;;;8.70;3.38;;;;;;;20.63;100.00;96342.72;5032933;28;20061;-71
2022/06/25 09:17:53;;;;;;;10.98;3.30;;;;;;;20.06;100.00;96350.75;5033292;28;20064;-72
2022/06/25 09:20:20;;;;;;;9.45;3.70;;;;;;;20.02;100.00;96363.38;5031331;28;20503;-73
2022/06/25 09:23:18;;;;;;;10.30;3.70;;;;;;;20.08;100.00;96353.16;5034602;28;20041;-73
2022/06/25 09:25:44;;;;;;;13.82;3.63;;;;;;;20.65;100.00;96358.72;5012586;28;20055;-72
2022/06/25 09:28:27;;;;;;;9.43;2.97;;;;;;;21.23;100.00;96339.31;5033428;28;20037;-73
2022/06/25 09:30:53;;;;;;;11.80;3.00;;;;;;;21.63;100.00;96347.31;5032560;28;20188;-72
2022/06/25 09:33:19;;;;;;;8.60;2.90;;;;;;;20.95;100.00;96346.16;5032511;28;20044;-72
2022/06/25 09:35:51;;;;;;;8.27;3.00;;;;;;;21.12;100.00;96338.03;5033227;28;20087;-73
2022/06/25 09:38:17;;;;;;;6.47;2.72;;;;;;;20.55;100.00;96340.78;5032503;28;20134;-72
2022/06/25 09:40:56;;;;;;;7.25;2.63;;;;;;;20.00;100.00;96349.31;5033108;28;20535;-73
2022/06/25 09:43:27;;;;;;;6.07;2.67;;;;;;;19.89;100.00;96337.91;5031402;28;20032;-72
2022/06/25 09:45:54;;;;;;;5.70;2.63;;;;;;;20.17;100.00;96343.16;5033381;28;20309;-72
2022/06/25 09:48:25;;;;;;;9.27;2.88;;;;;;;20.72;100.00;96343.56;5031382;28;20120;-73
2022/06/25 09:51:11;;;;;;;9.20;3.00;;;;;;;21.19;100.00;96335.63;5034109;28;20037;-72
2022/06/25 09:53:48;;;;;;;8.60;3.30;;;;;;;21.08;100.00;96342.47;5032025;28;20045;-72
2022/06/25 09:56:17;;;;;;;5.25;3.40;;;;;;;20.81;100.00;96338.94;5031562;28;20041;-73
2022/06/25 09:58:44;;;;;;;10.95;3.15;;;;;;;20.89;100.00;96328.41;5031360;28;20044;-72
2022/06/25 10:01:13;;;;;;;6.60;3.13;;;;;;;20.49;100.00;96331.19;5031540;28;20527;-72
2022/06/25 10:03:38;;;;;;;3.83;2.40;;;;;;;20.41;100.00;96318.34;5033280;28;20258;-72
2022/06/25 10:06:05;;;;;;;8.45;3.17;;;;;;;20.71;100.00;96312.06;5033126;28;20045;-72
2022/06/25 10:08:32;;;;;;;3.95;2.15;;;;;;;21.10;100.00;96319.31;5033450;28;20041;-72
2022/06/25 10:10:58;;;;;;;4.72;2.20;;;;;;;21.31;100.00;96316.75;5036553;28;20748;-74
2022/06/25 10:13:24;;;;;;;5.65;2.13;;;;;;;21.83;100.00;96313.97;5036844;28;20471;-73
2022/06/25 10:15:51;;;;;;;6.40;2.47;;;;;;;22.00;100.00;96315.06;5036305;28;20059;-72
2022/06/25 10:18:17;;;;;;;6.70;2.65;;;;;;;21.90;100.00;96308.84;5034793;28;20049;-72
2022/06/25 10:20:43;;;;;;;8.68;2.30;;;;;;;22.44;100.00;96317.34;5034482;28;20546;-74
2022/06/25 10:23:11;;;;;;;8.18;2.60;;;;;;;22.67;100.00;96317.88;5037978;28;20222;-73
2022/06/25 10:25:41;;;;;;;9.77;2.85;;;;;;;22.63;100.00;96319.63;5038868;28;20037;-73
2022/06/25 10:28:09;;;;;;;5.65;2.30;;;;;;;23.20;100.00;96310.97;5034824;28;20488;-74
2022/06/25 10:30:44;;;;;;;7.07;2.88;;;;;;;22.23;100.00;96311.00;5034934;28;20033;-74
2022/06/25 10:33:11;;;;;;;7.32;2.50;;;;;;;22.02;100.00;96301.91;5036145;28;20162;-73
2022/06/25 10:35:39;;;;;;;8.68;2.47;;;;;;;22.29;100.00;96309.72;5035946;28;20037;-74
2022/06/25 10:38:18;;;;;;;7.80;2.72;;;;;;;23.42;100.00;96307.06;5037275;28;20052;-73
2022/06/25 10:40:53;;;;;;;9.60;2.30;;;;;;;24.26;100.00;96301.44;5035194;28;20048;-73
2022/06/25 10:43:49;;;;;;;5.18;1.83;;;;;;;24.42;100.00;96294.97;5035443;28;20036;-72
2022/06/25 10:46:28;;;;;;;9.13;2.35;;;;;;;24.50;98.68;96290.53;5037344;28;20051;-73
2022/06/25 10:49:08;;;;;;;8.80;2.22;;;;;;;24.62;99.54;96290.53;5035270;28;20044;-72
2022/06/25 10:51:41;;;;;;;6.00;2.40;;;;;;;23.83;100.00;96294.53;5021375;28;20067;-73
2022/06/25 10:54:13;;;;;;;5.13;2.08;;;;;;;23.87;99.02;96292.69;5039592;28;20127;-73
2022/06/25 10:56:44;;;;;;;5.47;2.30;;;;;;;23.68;98.14;96295.16;5037339;28;20340;-73
2022/06/25 10:59:46;;;;;;;3.58;1.88;;;;;;;23.44;96.49;96299.38;5036073;28;20527;-72
2022/06/25 11:02:14;;;;;;;5.88;1.90;;;;;;;24.30;92.60;96285.94;5035799;28;20044;-72
2022/06/25 11:04:52;;;;;;;5.75;2.00;;;;;;;23.04;97.48;96291.66;5038051;28;20472;-72
2022/06/25 11:07:20;;;;;;;6.40;2.15;;;;;;;23.84;96.06;96285.19;5035909;28;20048;-72
2022/06/25 11:09:55;;;;;;;9.13;1.80;;;;;;;25.02;89.63;96285.13;5033708;28;20100;-75
2022/06/25 11:12:22;;;;;;;4.50;1.73;;;;;;;25.95;87.15;96274.06;5038335;28;20068;-74
2022/06/25 11:15:00;;;;;;;3.63;1.92;;;;;;;24.63;87.80;96283.13;5032342;28;20044;-73
2022/06/25 11:17:25;;;;;;;6.88;2.33;;;;;;;23.37;99.60;96288.19;5034587;28;20138;-73
2022/06/25 11:19:51;;;;;;;6.30;2.30;;;;;;;23.57;98.99;96284.59;5032705;28;20037;-73
2022/06/25 11:22:17;;;;;;;5.07;2.08;;;;;;;23.11;100.00;96290.31;5037501;28;20043;-74
2022/06/25 11:28:47;;;;;;;4.82;2.17;;;;;;;23.54;99.48;96282.56;5035816;28;20692;-73
2022/06/25 11:30:14;;;;;;;4.60;2.03;;;;;;;23.18;100.00;96302.28;5035155;28;20167;-75
2022/06/25 11:32:45;;;;;;;8.18;2.10;;;;;;;22.84;100.00;96297.06;5035804;28;20084;-73
2022/06/25 11:35:11;;;;;;;14.27;2.50;;;;;;;26.05;91.69;96294.69;5035206;28;20051;-72